createdAt,value
2023-02-20T00:01:51.704Z,1.73
2023-02-20T00:04:20.405Z,1.50
2023-02-20T00:06:49.006Z,0.70
2023-02-20T00:09:17.916Z,0.97
2023-02-20T00:11:47.425Z,2.17
2023-02-20T00:14:17.084Z,1.43
2023-02-20T00:16:48.770Z,1.40
2023-02-20T00:19:17.027Z,1.63
2023-02-20T00:21:49.009Z,1.43
2023-02-20T00:24:17.743Z,1.80
2023-02-20T00:26:49.235Z,1.07
2023-02-20T00:29:20.682Z,1.07
2023-02-20T00:31:52.662Z,1.23
2023-02-20T00:34:22.391Z,1.37
2023-02-20T00:36:50.646Z,1.77
2023-02-20T00:39:18.779Z,1.00
2023-02-20T00:41:46.949Z,1.47
2023-02-20T00:44:15.166Z,1.33
2023-02-20T00:46:44.942Z,1.30
2023-02-20T00:49:14.698Z,1.40
2023-02-20T00:51:43.019Z,1.90
2023-02-20T00:54:11.164Z,1.13
2023-02-20T00:56:39.313Z,1.53
2023-02-20T00:59:07.309Z,2.20
2023-02-20T01:01:35.727Z,1.30
2023-02-20T01:04:05.571Z,1.40
2023-02-20T01:06:33.728Z,1.10
2023-02-20T01:09:01.785Z,1.23
2023-02-20T01:11:29.877Z,1.87
2023-02-20T01:13:57.854Z,1.63
2023-02-20T01:16:25.998Z,2.00
2023-02-20T01:18:54.262Z,1.83
2023-02-20T01:21:23.866Z,2.20
2023-02-20T01:23:51.996Z,1.60
2023-02-20T01:26:20.171Z,1.73
2023-02-20T01:28:50.029Z,1.87
2023-02-20T01:31:18.352Z,1.77
2023-02-20T01:33:46.850Z,1.60
2023-02-20T01:36:15.501Z,2.07
2023-02-20T01:38:45.111Z,1.73
2023-02-20T01:41:14.068Z,1.80
2023-02-20T01:43:42.573Z,1.43
2023-02-20T01:46:45.747Z,1.33
2023-02-20T01:49:17.696Z,1.30
2023-02-20T01:51:49.188Z,1.10
2023-02-20T01:54:24.559Z,1.47
2023-02-20T01:56:55.499Z,1.47
2023-02-20T01:59:25.375Z,1.53
2023-02-20T02:01:54.355Z,1.40
2023-02-20T02:04:23.246Z,1.40
2023-02-20T02:06:54.969Z,1.80
2023-02-20T02:09:34.052Z,0.93
2023-02-20T02:12:02.179Z,1.33
2023-02-20T02:14:30.344Z,1.20
2023-02-20T02:17:12.863Z,0.80
2023-02-20T02:20:05.803Z,0.90
2023-02-20T02:22:56.172Z,1.10
2023-02-20T02:25:41.632Z,1.50
2023-02-20T02:29:04.364Z,2.10
2023-02-20T02:32:09.762Z,1.67
2023-02-20T02:35:11.603Z,1.77
2023-02-20T02:37:45.608Z,1.20
2023-02-20T02:40:35.232Z,1.67
2023-02-20T02:43:09.963Z,2.23
2023-02-20T02:45:46.664Z,2.30
2023-02-20T02:48:23.377Z,2.70
2023-02-20T02:50:56.054Z,2.83
2023-02-20T02:53:26.103Z,2.90
2023-02-20T02:55:54.860Z,2.63
2023-02-20T02:58:24.061Z,1.60
2023-02-20T03:00:58.429Z,2.27
2023-02-20T03:03:30.243Z,1.63
2023-02-20T03:06:03.578Z,2.00
2023-02-20T03:08:39.066Z,1.00
2023-02-20T03:11:09.650Z,1.83
2023-02-20T03:14:01.120Z,1.37
2023-02-20T03:16:34.784Z,1.23
2023-02-20T03:19:04.918Z,0.93
2023-02-20T03:21:35.479Z,1.30
2023-02-20T03:24:06.457Z,1.27
2023-02-20T03:26:37.365Z,1.40
2023-02-20T03:29:11.193Z,1.00
2023-02-20T03:31:45.819Z,0.80
2023-02-20T03:34:37.323Z,0.80
2023-02-20T03:37:28.451Z,1.53
2023-02-20T03:40:19.918Z,1.17
2023-02-20T03:43:13.135Z,0.70
2023-02-20T03:45:44.749Z,1.17
2023-02-20T03:48:17.858Z,0.97
2023-02-20T03:51:03.040Z,1.20
2023-02-20T03:53:31.844Z,1.07
2023-02-20T03:56:06.841Z,0.73
2023-02-20T03:58:39.056Z,0.93
2023-02-20T04:01:09.487Z,1.27
2023-02-20T04:03:42.949Z,1.50
2023-02-20T04:06:13.401Z,0.90
2023-02-20T04:08:46.932Z,0.90
2023-02-20T04:11:21.373Z,1.20
2023-02-20T04:13:53.178Z,0.73
2023-02-20T04:16:22.474Z,0.77
2023-02-20T04:18:50.826Z,0.90
2023-02-20T04:21:24.315Z,0.70
2023-02-20T04:24:03.598Z,1.07
2023-02-20T04:26:33.688Z,0.80
2023-02-20T04:29:02.114Z,0.43
2023-02-20T04:31:30.357Z,0.30
2023-02-20T04:33:58.819Z,0.80
2023-02-20T04:36:27.661Z,0.90
2023-02-20T04:38:55.639Z,0.70
2023-02-20T04:41:24.261Z,1.30
2023-02-20T04:44:15.190Z,0.60
2023-02-20T04:46:43.456Z,1.13
2023-02-20T04:49:11.848Z,0.50
2023-02-20T04:51:40.379Z,1.00
2023-02-20T04:54:08.449Z,0.80
2023-02-20T04:56:36.467Z,1.00
2023-02-20T04:59:06.701Z,1.50
2023-02-20T05:01:35.221Z,0.87
2023-02-20T05:04:03.452Z,1.30
2023-02-20T05:06:31.622Z,1.00
2023-02-20T05:08:59.857Z,1.30
2023-02-20T05:11:28.405Z,0.83
2023-02-20T05:13:56.764Z,1.10
2023-02-20T05:16:27.184Z,0.80
2023-02-20T05:18:55.491Z,0.60
2023-02-20T05:21:40.923Z,0.77
2023-02-20T05:24:09.732Z,0.80
2023-02-20T05:26:38.257Z,1.07
2023-02-20T05:29:06.586Z,1.33
2023-02-20T05:31:36.392Z,0.97
2023-02-20T05:34:05.631Z,1.33
2023-02-20T05:36:34.096Z,0.60
2023-02-20T05:39:03.209Z,1.10
2023-02-20T05:41:34.380Z,1.30
2023-02-20T05:44:02.951Z,1.10
2023-02-20T05:46:31.573Z,0.83
2023-02-20T05:49:01.308Z,0.90
2023-02-20T05:51:32.849Z,1.57
2023-02-20T05:54:02.833Z,1.10
2023-02-20T05:56:33.085Z,0.80
2023-02-20T05:59:01.297Z,0.57
2023-02-20T06:01:31.411Z,0.70
2023-02-20T06:04:02.142Z,0.90
2023-02-20T06:06:34.606Z,1.00
2023-02-20T06:09:03.383Z,0.97
2023-02-20T06:11:31.663Z,1.20
2023-02-20T06:14:00.039Z,1.00
2023-02-20T06:16:30.747Z,0.87
2023-02-20T06:19:01.330Z,0.93
2023-02-20T06:21:29.959Z,1.33
2023-02-20T06:23:58.156Z,0.90
2023-02-20T06:26:26.670Z,1.30
2023-02-20T06:28:55.106Z,1.07
2023-02-20T06:31:28.339Z,0.80
2023-02-20T06:33:56.743Z,1.00
2023-02-20T06:36:29.451Z,0.90
2023-02-20T06:38:58.649Z,1.17
2023-02-20T06:41:27.168Z,0.27
2023-02-20T06:44:01.525Z,0.90
2023-02-20T06:46:29.940Z,0.70
2023-02-20T06:48:59.802Z,0.93
2023-02-20T06:51:31.216Z,0.80
2023-02-20T06:53:59.921Z,0.90
2023-02-20T06:56:29.488Z,0.60
2023-02-20T06:58:59.140Z,1.00
2023-02-20T07:01:30.425Z,0.90
2023-02-20T07:04:01.193Z,0.87
2023-02-20T07:06:33.100Z,1.20
2023-02-20T07:09:03.430Z,1.13
2023-02-20T07:11:31.883Z,0.70
2023-02-20T07:14:00.529Z,0.63
2023-02-20T07:16:53.523Z,0.90
2023-02-20T07:19:21.960Z,1.33
2023-02-20T07:21:51.823Z,3.53
2023-02-20T07:24:20.397Z,2.70
2023-02-20T07:26:49.940Z,1.30
2023-02-20T07:29:18.474Z,1.00
2023-02-20T07:31:46.918Z,1.20
2023-02-20T07:34:15.007Z,1.40
2023-02-20T07:36:43.521Z,2.27
2023-02-20T07:39:14.617Z,4.07
2023-02-20T07:41:43.282Z,2.83
2023-02-20T07:44:13.140Z,1.67
2023-02-20T07:46:41.258Z,0.97
2023-02-20T07:49:09.772Z,3.17
2023-02-20T07:51:37.776Z,0.70
2023-02-20T07:54:06.027Z,1.23
2023-02-20T07:56:35.697Z,0.70
2023-02-20T07:59:03.886Z,1.10
2023-02-20T08:01:32.062Z,1.20
2023-02-20T08:04:00.158Z,0.50
2023-02-20T08:06:30.224Z,1.10
2023-02-20T08:08:58.338Z,1.90
2023-02-20T08:11:26.727Z,1.50
2023-02-20T08:13:56.560Z,0.80
2023-02-20T08:16:25.012Z,1.20
2023-02-20T08:18:53.410Z,1.10
2023-02-20T08:21:21.778Z,1.07
2023-02-20T08:23:50.076Z,1.70
2023-02-20T08:26:18.366Z,1.30
2023-02-20T08:28:48.542Z,1.20
2023-02-20T08:31:31.200Z,1.53
2023-02-20T08:34:00.651Z,1.30
2023-02-20T08:36:29.319Z,2.27
2023-02-20T08:38:58.049Z,1.10
2023-02-20T08:41:26.360Z,1.20
2023-02-20T08:43:54.628Z,1.60
2023-02-20T08:46:24.524Z,0.70
2023-02-20T08:48:53.183Z,1.57
2023-02-20T08:51:23.155Z,0.43
2023-02-20T08:53:51.570Z,0.70
2023-02-20T08:56:20.502Z,0.63
2023-02-20T08:58:49.360Z,0.70
2023-02-20T09:01:18.269Z,0.77
2023-02-20T09:03:49.647Z,0.70
2023-02-20T09:06:18.039Z,1.10
2023-02-20T09:08:47.151Z,1.10
2023-02-20T09:11:16.667Z,0.60
2023-02-20T09:13:45.956Z,1.03
2023-02-20T09:16:15.945Z,0.97
2023-02-20T09:18:46.267Z,0.87
2023-02-20T09:21:24.422Z,1.00
2023-02-20T09:23:53.647Z,1.00
2023-02-20T09:26:21.799Z,0.90
2023-02-20T09:28:50.076Z,0.90
2023-02-20T09:31:24.766Z,1.53
2023-02-20T09:33:53.137Z,1.00
2023-02-20T09:36:22.994Z,0.53
2023-02-20T09:38:51.227Z,1.23
2023-02-20T09:41:43.695Z,0.80
2023-02-20T09:44:16.605Z,0.90
2023-02-20T09:46:46.999Z,1.23
2023-02-20T09:49:17.974Z,1.67
2023-02-20T09:51:53.961Z,1.17
2023-02-20T09:54:26.642Z,1.33
2023-02-20T09:56:59.439Z,0.80
2023-02-20T09:59:33.966Z,0.80
2023-02-20T10:02:06.098Z,1.10
2023-02-20T10:04:40.977Z,0.90
2023-02-20T10:07:22.452Z,0.57
2023-02-20T10:09:50.691Z,0.80
2023-02-20T10:12:29.084Z,0.70
2023-02-20T10:15:21.070Z,0.63
2023-02-20T10:17:54.480Z,0.70
2023-02-20T10:20:33.049Z,1.23
2023-02-20T10:23:10.190Z,1.00
2023-02-20T10:25:42.359Z,1.50
2023-02-20T10:28:13.162Z,1.10
2023-02-20T10:30:45.978Z,1.00
2023-02-20T10:33:23.712Z,0.97
2023-02-20T10:35:57.481Z,0.63
2023-02-20T10:38:33.916Z,0.90
2023-02-20T10:41:11.839Z,0.77
2023-02-20T10:43:45.429Z,0.50
2023-02-20T10:46:21.074Z,0.37
2023-02-20T10:48:49.670Z,0.60
2023-02-20T10:51:23.381Z,0.30
2023-02-20T10:54:01.148Z,0.30
2023-02-20T10:56:38.386Z,0.20
2023-02-20T10:59:11.208Z,0.30
2023-02-20T11:01:41.503Z,0.50
2023-02-20T11:04:15.553Z,0.30
2023-02-20T11:06:47.326Z,0.47
2023-02-20T11:09:23.974Z,0.17
2023-02-20T11:11:54.840Z,0.50
2023-02-20T11:14:40.078Z,0.37
2023-02-20T11:17:12.581Z,0.40
2023-02-20T11:19:43.970Z,0.33
2023-02-20T11:22:13.416Z,0.40
2023-02-20T11:24:44.282Z,0.20
2023-02-20T11:27:16.035Z,0.10
2023-02-20T11:29:50.480Z,0.50
2023-02-20T11:32:36.576Z,0.40
2023-02-20T11:35:23.065Z,0.40
2023-02-20T11:37:55.391Z,0.63
2023-02-20T11:40:29.543Z,1.10
2023-02-20T11:42:57.929Z,0.60
2023-02-20T11:45:27.832Z,0.53
2023-02-20T11:48:10.431Z,0.50
2023-02-20T11:50:41.439Z,1.07
2023-02-20T11:53:21.106Z,0.50
2023-02-20T11:56:00.093Z,0.30
2023-02-20T11:58:29.312Z,0.60
2023-02-20T12:00:57.572Z,0.63
2023-02-20T12:03:28.549Z,0.90
2023-02-20T12:05:57.948Z,1.00
2023-02-20T12:08:37.782Z,1.73
2023-02-20T12:11:09.902Z,1.30
2023-02-20T12:13:40.357Z,0.97
2023-02-20T12:16:26.329Z,0.70
2023-02-20T12:19:04.106Z,1.27
2023-02-20T12:21:45.937Z,1.20
2023-02-20T12:24:38.121Z,0.67
2023-02-20T12:27:27.715Z,1.10
2023-02-20T12:30:04.162Z,0.77
2023-02-20T12:32:41.096Z,0.43
2023-02-20T12:35:52.733Z,0.70
2023-02-20T12:38:31.984Z,0.90
2023-02-20T12:41:22.793Z,0.60
2023-02-20T12:44:13.310Z,0.60
2023-02-20T12:46:51.231Z,0.50
2023-02-20T12:49:31.649Z,0.60
2023-02-20T12:52:06.047Z,1.03
2023-02-20T12:54:41.754Z,0.90
2023-02-20T12:57:20.017Z,0.80
2023-02-20T12:59:59.263Z,0.77
2023-02-20T13:02:41.434Z,0.70
2023-02-20T13:05:14.874Z,1.00
2023-02-20T13:07:48.832Z,0.80
2023-02-20T13:10:20.459Z,1.00
2023-02-20T13:12:49.770Z,0.40
2023-02-20T13:15:33.352Z,0.90
2023-02-20T13:18:07.957Z,0.50
2023-02-20T13:20:44.627Z,1.10
2023-02-20T13:23:30.564Z,0.83
2023-02-20T13:25:59.150Z,0.50
2023-02-20T13:28:35.072Z,0.93
2023-02-20T13:31:19.598Z,0.50
2023-02-20T13:33:50.402Z,0.33
2023-02-20T13:36:39.383Z,0.07
2023-02-20T13:39:40.064Z,1.23
2023-02-20T13:42:30.062Z,0.83
2023-02-20T13:44:59.766Z,0.47
2023-02-20T13:47:39.898Z,0.60
2023-02-20T13:50:31.805Z,0.37
2023-02-20T13:53:07.257Z,0.73
2023-02-20T13:55:35.797Z,0.50
2023-02-20T13:58:08.508Z,1.30
2023-02-20T14:00:47.668Z,0.40
2023-02-20T14:03:21.938Z,0.93
2023-02-20T14:06:04.532Z,0.53
2023-02-20T14:08:32.803Z,1.10
2023-02-20T14:11:06.533Z,0.80
2023-02-20T14:13:40.412Z,1.23
2023-02-20T14:16:29.118Z,0.63
2023-02-20T14:19:00.972Z,0.70
2023-02-20T14:21:30.085Z,0.83
2023-02-20T14:23:58.324Z,0.90
2023-02-20T14:26:28.753Z,0.90
2023-02-20T14:28:59.238Z,0.70
2023-02-20T14:31:28.802Z,1.10
2023-02-20T14:34:04.562Z,1.17
2023-02-20T14:36:56.556Z,0.80
2023-02-20T14:39:35.640Z,0.70
2023-02-20T14:42:06.061Z,0.90
2023-02-20T14:44:34.550Z,1.10
2023-02-20T14:47:10.243Z,0.83
2023-02-20T14:49:40.602Z,2.07
2023-02-20T14:52:16.792Z,1.87
2023-02-20T14:54:46.341Z,0.93
2023-02-20T14:57:15.847Z,0.90
2023-02-20T14:59:44.577Z,0.73
2023-02-20T15:02:31.334Z,0.60
2023-02-20T15:05:05.960Z,0.83
2023-02-20T15:07:35.315Z,0.37
2023-02-20T15:10:05.881Z,0.77
2023-02-20T15:12:36.123Z,0.50
2023-02-20T15:15:06.927Z,0.83
2023-02-20T15:17:37.733Z,0.50
2023-02-20T15:20:20.008Z,1.33
2023-02-20T15:22:48.315Z,1.07
2023-02-20T15:25:30.074Z,0.77
2023-02-20T15:28:09.385Z,0.57
2023-02-20T15:30:38.148Z,1.00
2023-02-20T15:33:10.620Z,0.70
2023-02-20T15:35:40.468Z,0.43
2023-02-20T15:38:10.683Z,1.10
2023-02-20T15:40:38.882Z,0.50
2023-02-20T15:43:23.978Z,1.10
2023-02-20T15:46:01.155Z,0.57
2023-02-20T15:48:29.372Z,0.93
2023-02-20T15:50:59.088Z,0.40
2023-02-20T15:53:30.606Z,0.57
2023-02-20T15:56:02.861Z,1.00
2023-02-20T15:58:35.384Z,1.10
2023-02-20T16:01:04.631Z,1.57
2023-02-20T16:03:45.225Z,1.10
2023-02-20T16:06:20.000Z,1.77
2023-02-20T16:08:49.025Z,0.47
2023-02-20T16:11:18.004Z,1.20
2023-02-20T16:13:49.733Z,0.90
2023-02-20T16:16:25.429Z,0.93
2023-02-20T16:18:55.438Z,0.80
2023-02-20T16:21:26.224Z,2.30
2023-02-20T16:23:55.019Z,0.90
2023-02-20T16:26:26.819Z,0.80
2023-02-20T16:28:59.314Z,1.10
2023-02-20T16:32:07.592Z,1.43
2023-02-20T16:34:38.029Z,1.43
2023-02-20T16:37:11.492Z,1.13
2023-02-20T16:39:40.062Z,2.00
2023-02-20T16:42:20.838Z,1.57
2023-02-20T16:44:50.498Z,1.37
2023-02-20T16:47:20.650Z,2.33
2023-02-20T16:49:50.411Z,1.10
2023-02-20T16:52:25.229Z,0.97
2023-02-20T16:54:55.609Z,1.00
2023-02-20T16:57:25.328Z,0.87
2023-02-20T16:59:55.889Z,1.43
2023-02-20T17:02:26.053Z,1.27
2023-02-20T17:04:54.319Z,1.13
2023-02-20T17:07:25.127Z,1.63
2023-02-20T17:09:54.966Z,1.10
2023-02-20T17:12:24.968Z,0.77
2023-02-20T17:14:54.389Z,1.00
2023-02-20T17:17:24.132Z,0.80
2023-02-20T17:19:55.586Z,0.87
2023-02-20T17:22:26.111Z,1.00
2023-02-20T17:24:55.068Z,0.50
2023-02-20T17:27:23.306Z,0.80
2023-02-20T17:29:51.726Z,0.60
2023-02-20T17:32:20.005Z,0.63
2023-02-20T17:34:48.056Z,0.83
2023-02-20T17:37:17.172Z,0.80
2023-02-20T17:39:47.172Z,0.80
2023-02-20T17:42:15.275Z,0.90
2023-02-20T17:44:43.594Z,1.20
2023-02-20T17:47:11.789Z,0.67
2023-02-20T17:49:41.619Z,1.03
2023-02-20T17:52:11.281Z,0.57
2023-02-20T17:54:41.482Z,1.40
2023-02-20T17:57:10.958Z,1.67
2023-02-20T17:59:39.969Z,1.83
2023-02-20T18:02:09.180Z,1.63
2023-02-20T18:04:37.622Z,1.10
2023-02-20T18:07:06.289Z,2.87
2023-02-20T18:09:34.597Z,1.57
2023-02-20T18:12:03.799Z,2.57
2023-02-20T18:14:33.392Z,2.50
2023-02-20T18:17:01.559Z,2.50
2023-02-20T18:19:29.679Z,2.37
2023-02-20T18:21:57.724Z,1.40
2023-02-20T18:24:26.632Z,1.03
2023-02-20T18:26:56.651Z,1.73
2023-02-20T18:29:27.215Z,0.87
2023-02-20T18:31:58.769Z,0.50
2023-02-20T18:34:28.698Z,0.80
2023-02-20T18:36:57.849Z,1.07
2023-02-20T18:39:27.592Z,2.40
2023-02-20T18:41:57.564Z,2.37
2023-02-20T18:44:27.805Z,2.27
2023-02-20T18:46:57.568Z,1.00
2023-02-20T18:49:25.765Z,1.50
2023-02-20T18:51:54.395Z,2.40
2023-02-20T18:54:33.070Z,1.87
2023-02-20T18:57:02.623Z,1.93
2023-02-20T18:59:31.112Z,1.73
2023-02-20T19:02:03.501Z,1.80
2023-02-20T19:04:33.313Z,1.60
2023-02-20T19:07:03.738Z,1.43
2023-02-20T19:09:47.801Z,1.10
2023-02-20T19:12:15.854Z,1.73
2023-02-20T19:14:47.777Z,1.73
2023-02-20T19:17:17.815Z,1.00
2023-02-20T19:19:49.332Z,1.77
2023-02-20T19:22:17.426Z,1.13
2023-02-20T19:24:45.581Z,1.20
2023-02-20T19:27:14.388Z,1.40
2023-02-20T19:29:42.610Z,1.60
2023-02-20T19:32:11.423Z,1.50
2023-02-20T19:34:41.647Z,1.00
2023-02-20T19:37:12.205Z,0.90
2023-02-20T19:39:40.266Z,0.90
2023-02-20T19:42:08.532Z,0.93
2023-02-20T19:44:37.496Z,1.13
2023-02-20T19:47:05.718Z,2.10
2023-02-20T19:49:34.767Z,1.30
2023-02-20T19:52:04.338Z,1.30
2023-02-20T19:54:32.722Z,1.37
2023-02-20T19:57:04.444Z,0.90
2023-02-20T19:59:32.853Z,1.10
2023-02-20T20:02:02.142Z,1.50
2023-02-20T20:04:33.153Z,1.43
2023-02-20T20:07:04.069Z,1.77
2023-02-20T20:09:36.677Z,1.60
2023-02-20T20:12:26.743Z,1.80
2023-02-20T20:14:55.018Z,1.70
2023-02-20T20:17:23.613Z,1.87
2023-02-20T20:20:00.392Z,1.40
2023-02-20T20:22:32.241Z,2.07
2023-02-20T20:25:00.661Z,1.77
2023-02-20T20:27:28.752Z,1.33
2023-02-20T20:29:57.304Z,2.43
2023-02-20T20:32:25.552Z,1.73
2023-02-20T20:34:55.648Z,2.13
2023-02-20T20:37:25.178Z,2.40
2023-02-20T20:39:56.550Z,1.77
2023-02-20T20:42:26.289Z,2.93
2023-02-20T20:44:55.637Z,2.43
2023-02-20T20:47:25.356Z,2.00
2023-02-20T20:49:55.647Z,2.93
2023-02-20T20:52:24.906Z,3.40
2023-02-20T20:54:56.029Z,2.50
2023-02-20T20:57:26.535Z,2.53
2023-02-20T20:59:56.167Z,3.90
2023-02-20T21:02:29.843Z,2.10
2023-02-20T21:05:10.722Z,1.87
2023-02-20T21:07:45.972Z,2.60
2023-02-20T21:10:27.872Z,1.50
2023-02-20T21:13:15.914Z,1.67
2023-02-20T21:15:57.733Z,1.50
2023-02-20T21:18:28.958Z,1.07
2023-02-20T21:24:07.334Z,1.37
2023-02-20T21:26:38.165Z,1.40
2023-02-20T21:29:07.642Z,1.57
2023-02-20T21:31:53.488Z,1.40
2023-02-20T21:34:27.383Z,2.30
2023-02-20T21:36:59.076Z,1.60
2023-02-20T21:39:33.088Z,2.03
2023-02-20T21:42:22.571Z,1.80
2023-02-20T21:44:52.468Z,1.70
2023-02-20T21:47:26.979Z,2.20
2023-02-20T21:49:58.243Z,1.50
2023-02-20T21:52:38.589Z,1.70
2023-02-20T22:07:09.461Z,1.30
2023-02-20T22:09:56.302Z,1.30
2023-02-20T22:15:42.103Z,1.50
2023-02-20T22:18:29.571Z,1.20
2023-02-20T22:21:15.966Z,1.40
2023-02-20T22:24:02.370Z,1.63
2023-02-20T22:26:47.837Z,1.37
2023-02-20T22:34:50.396Z,1.00
2023-02-20T22:37:36.721Z,0.90
2023-02-20T22:40:23.859Z,1.00
2023-02-20T22:46:22.220Z,2.20
2023-02-20T22:49:08.417Z,2.70
2023-02-20T22:52:00.200Z,2.07
2023-02-20T22:55:04.670Z,1.40
2023-02-20T22:57:56.027Z,1.30
2023-02-20T23:00:41.978Z,1.17
2023-02-20T23:03:27.871Z,0.97
2023-02-20T23:06:18.819Z,1.37
2023-02-20T23:09:07.423Z,0.93
2023-02-20T23:11:53.757Z,1.10
2023-02-20T23:14:39.469Z,0.90
2023-02-20T23:17:35.775Z,1.10
2023-02-20T23:20:24.040Z,1.40
2023-02-20T23:23:09.724Z,1.13
2023-02-20T23:25:56.660Z,1.60
2023-02-20T23:28:42.228Z,1.83
2023-02-20T23:31:28.123Z,1.47
2023-02-20T23:34:14.033Z,1.63
2023-02-20T23:37:05.245Z,1.57
2023-02-20T23:39:51.217Z,1.57
2023-02-20T23:42:42.519Z,1.60
2023-02-20T23:45:30.036Z,1.10
2023-02-20T23:48:19.858Z,1.10
2023-02-20T23:51:13.338Z,1.23
2023-02-20T23:57:00.635Z,1.07
2023-02-20T23:59:47.820Z,1.20
